createdAt,value
2023-03-06T00:00:33.866Z,1.98
2023-03-06T00:03:00.601Z,3.88
2023-03-06T00:05:27.920Z,3.33
2023-03-06T00:07:54.772Z,2.38
2023-03-06T00:10:27.112Z,3.17
2023-03-06T00:12:55.176Z,3.65
2023-03-06T00:15:22.578Z,3.63
2023-03-06T00:17:49.293Z,5.03
2023-03-06T00:20:16.567Z,4.80
2023-03-06T00:22:43.398Z,3.05
2023-03-06T00:25:14.083Z,4.35
2023-03-06T00:27:41.021Z,4.78
2023-03-06T00:30:08.436Z,5.15
2023-03-06T00:32:35.175Z,4.88
2023-03-06T00:35:01.908Z,3.63
2023-03-06T00:37:28.543Z,2.72
2023-03-06T00:39:55.284Z,3.75
2023-03-06T00:42:21.959Z,5.38
2023-03-06T00:44:48.651Z,4.57
2023-03-06T00:47:18.327Z,5.35
2023-03-06T00:49:45.486Z,3.40
2023-03-06T00:52:13.287Z,2.85
2023-03-06T00:54:40.798Z,4.20
2023-03-06T00:57:07.652Z,5.22
2023-03-06T00:59:34.306Z,2.53
2023-03-06T01:02:01.123Z,5.53
2023-03-06T01:04:27.857Z,3.83
2023-03-06T01:06:54.474Z,3.05
2023-03-06T01:09:21.379Z,3.10
2023-03-06T01:11:47.988Z,2.42
2023-03-06T01:14:14.729Z,4.13
2023-03-06T01:16:41.341Z,4.15
2023-03-06T01:19:08.019Z,5.28
2023-03-06T01:21:34.607Z,3.20
2023-03-06T01:24:01.363Z,3.38
2023-03-06T01:26:28.059Z,5.68
2023-03-06T01:28:57.363Z,6.00
2023-03-06T01:31:25.256Z,4.95
2023-03-06T01:33:52.126Z,7.13
2023-03-06T01:36:19.047Z,4.97
2023-03-06T01:38:45.796Z,9.80
2023-03-06T01:41:15.675Z,10.45
2023-03-06T01:43:45.913Z,12.23
2023-03-06T01:46:42.273Z,6.20
2023-03-06T01:49:12.583Z,5.18
2023-03-06T01:51:49.868Z,4.70
2023-03-06T01:54:24.438Z,6.07
2023-03-06T01:56:55.424Z,5.45
2023-03-06T01:59:23.707Z,4.97
2023-03-06T02:01:51.238Z,6.90
2023-03-06T02:04:18.711Z,4.50
2023-03-06T02:06:47.422Z,4.05
2023-03-06T02:09:14.746Z,7.88
2023-03-06T02:11:44.184Z,5.85
2023-03-06T02:14:13.313Z,5.05
2023-03-06T02:16:41.717Z,7.85
2023-03-06T02:19:20.652Z,4.80
2023-03-06T02:21:47.344Z,7.80
2023-03-06T02:24:40.477Z,5.95
2023-03-06T02:27:09.534Z,5.93
2023-03-06T02:29:36.227Z,6.30
2023-03-06T02:32:03.044Z,8.57
2023-03-06T02:34:29.714Z,8.75
2023-03-06T02:37:02.554Z,6.72
2023-03-06T02:39:32.659Z,7.32
2023-03-06T02:41:59.341Z,10.95
2023-03-06T02:44:27.493Z,8.95
2023-03-06T02:46:54.309Z,7.30
2023-03-06T02:49:21.003Z,11.40
2023-03-06T02:51:47.955Z,11.20
2023-03-06T02:54:14.593Z,9.48
2023-03-06T02:56:41.195Z,11.90
2023-03-06T02:59:07.839Z,9.70
2023-03-06T03:01:34.605Z,10.18
2023-03-06T03:04:01.265Z,10.15
2023-03-06T03:06:28.068Z,12.05
2023-03-06T03:08:54.927Z,11.93
2023-03-06T03:11:21.574Z,9.85
2023-03-06T03:13:48.212Z,10.27
2023-03-06T03:16:15.418Z,9.90
2023-03-06T03:18:47.875Z,11.70
2023-03-06T03:21:15.430Z,11.63
2023-03-06T03:23:42.039Z,14.73
2023-03-06T03:26:20.136Z,8.93
2023-03-06T03:28:46.795Z,10.95
2023-03-06T03:31:14.102Z,9.05
2023-03-06T03:33:41.333Z,9.73
2023-03-06T03:36:08.626Z,8.73
2023-03-06T03:38:35.751Z,9.32
2023-03-06T03:41:03.424Z,7.95
2023-03-06T03:43:30.642Z,10.23
2023-03-06T03:45:57.335Z,7.45
2023-03-06T03:48:23.947Z,7.43
2023-03-06T03:50:50.538Z,7.75
2023-03-06T03:53:17.174Z,8.13
2023-03-06T03:55:45.992Z,11.50
2023-03-06T03:58:12.588Z,7.68
2023-03-06T04:00:39.322Z,9.73
2023-03-06T04:03:05.918Z,8.75
2023-03-06T04:05:33.843Z,12.20
2023-03-06T04:08:02.995Z,12.50
2023-03-06T04:10:29.806Z,9.13
2023-03-06T04:12:56.583Z,7.70
2023-03-06T04:15:23.523Z,9.00
2023-03-06T04:17:50.254Z,9.63
2023-03-06T04:20:17.104Z,7.18
2023-03-06T04:22:43.786Z,7.93
2023-03-06T04:25:10.627Z,8.02
2023-03-06T04:27:37.316Z,9.18
2023-03-06T04:30:05.599Z,6.40
2023-03-06T04:32:32.368Z,9.43
2023-03-06T04:34:59.041Z,8.80
2023-03-06T04:37:26.938Z,8.38
2023-03-06T04:39:53.975Z,6.32
2023-03-06T04:42:20.824Z,7.93
2023-03-06T04:44:47.460Z,6.78
2023-03-06T04:47:14.279Z,10.20
2023-03-06T04:49:40.983Z,9.93
2023-03-06T04:52:07.904Z,7.88
2023-03-06T04:54:34.564Z,6.75
2023-03-06T04:57:01.435Z,5.95
2023-03-06T04:59:28.240Z,5.70
2023-03-06T05:01:55.165Z,7.13
2023-03-06T05:04:21.865Z,6.65
2023-03-06T05:06:49.127Z,3.83
2023-03-06T05:09:15.751Z,5.65
2023-03-06T05:11:42.413Z,3.08
2023-03-06T05:14:09.080Z,3.55
2023-03-06T05:16:35.820Z,6.03
2023-03-06T05:19:02.826Z,5.07
2023-03-06T05:21:29.451Z,9.20
2023-03-06T05:23:56.116Z,4.82
2023-03-06T05:26:22.787Z,5.38
2023-03-06T05:28:49.602Z,6.10
2023-03-06T05:31:16.258Z,7.82
2023-03-06T05:33:42.912Z,6.10
2023-03-06T05:36:09.938Z,5.20
2023-03-06T05:38:36.600Z,5.60
2023-03-06T05:41:03.289Z,6.90
2023-03-06T05:43:29.946Z,5.68
2023-03-06T05:46:07.123Z,8.38
2023-03-06T05:48:34.441Z,3.97
2023-03-06T05:51:02.332Z,5.00
2023-03-06T05:53:29.370Z,6.20
2023-03-06T05:55:57.610Z,5.00
2023-03-06T05:58:24.300Z,7.15
2023-03-06T06:00:52.126Z,4.53
2023-03-06T06:03:19.971Z,5.65
2023-03-06T06:05:46.971Z,6.25
2023-03-06T06:08:13.602Z,6.90
2023-03-06T06:10:40.402Z,4.72
2023-03-06T06:13:07.247Z,6.97
2023-03-06T06:15:33.933Z,3.67
2023-03-06T06:18:00.751Z,5.43
2023-03-06T06:20:28.470Z,4.35
2023-03-06T06:22:55.510Z,4.47
2023-03-06T06:25:22.176Z,5.65
2023-03-06T06:27:48.870Z,4.45
2023-03-06T06:30:15.673Z,4.60
2023-03-06T06:32:42.441Z,5.88
2023-03-06T06:35:09.983Z,3.85
2023-03-06T06:37:36.662Z,4.68
2023-03-06T06:40:04.522Z,4.63
2023-03-06T06:42:38.087Z,2.58
2023-03-06T06:45:06.968Z,5.80
2023-03-06T06:47:34.231Z,2.13
2023-03-06T06:50:00.975Z,2.55
2023-03-06T06:52:27.741Z,3.17
2023-03-06T06:54:54.516Z,5.93
2023-03-06T06:57:21.825Z,2.83
2023-03-06T06:59:48.428Z,4.78
2023-03-06T07:02:15.918Z,1.88
2023-03-06T07:05:00.245Z,3.95
2023-03-06T07:07:27.600Z,2.33
2023-03-06T07:09:55.538Z,2.22
2023-03-06T07:12:22.178Z,2.33
2023-03-06T07:14:48.818Z,2.08
2023-03-06T07:17:15.517Z,4.18
2023-03-06T07:19:42.152Z,2.25
2023-03-06T07:22:08.840Z,1.77
2023-03-06T07:24:35.495Z,2.70
2023-03-06T07:27:02.145Z,3.90
2023-03-06T07:29:29.198Z,2.03
2023-03-06T07:31:55.927Z,3.13
2023-03-06T07:34:22.687Z,4.07
2023-03-06T07:36:50.794Z,3.50
2023-03-06T07:39:17.573Z,6.13
2023-03-06T07:41:44.316Z,6.47
2023-03-06T07:44:10.966Z,2.65
2023-03-06T07:46:37.669Z,4.50
2023-03-06T07:49:04.424Z,2.45
2023-03-06T07:51:31.045Z,3.05
2023-03-06T07:53:57.687Z,2.22
2023-03-06T07:56:24.328Z,2.70
2023-03-06T07:58:50.987Z,3.30
2023-03-06T08:01:20.026Z,2.35
2023-03-06T08:03:48.758Z,2.88
2023-03-06T08:06:19.382Z,4.25
2023-03-06T08:08:47.970Z,6.53
2023-03-06T08:11:16.402Z,1.88
2023-03-06T08:13:43.781Z,2.70
2023-03-06T08:16:11.381Z,2.83
2023-03-06T08:18:42.434Z,3.70
2023-03-06T08:21:18.197Z,1.85
2023-03-06T08:23:45.301Z,1.52
2023-03-06T08:26:14.773Z,2.67
2023-03-06T08:28:41.481Z,1.95
2023-03-06T08:31:34.531Z,1.48
2023-03-06T08:34:07.383Z,2.33
2023-03-06T08:36:34.134Z,1.17
2023-03-06T08:39:01.295Z,1.85
2023-03-06T08:41:28.284Z,1.60
2023-03-06T08:43:55.168Z,4.10
2023-03-06T08:46:24.757Z,2.35
2023-03-06T08:48:51.804Z,1.70
2023-03-06T08:51:19.747Z,1.95
2023-03-06T08:53:46.582Z,1.05
2023-03-06T08:56:28.021Z,0.60
2023-03-06T08:58:56.374Z,0.80
2023-03-06T09:01:26.053Z,3.10
2023-03-06T09:03:55.677Z,1.63
2023-03-06T09:06:22.970Z,1.08
2023-03-06T09:08:52.009Z,1.05
2023-03-06T09:11:19.276Z,3.20
2023-03-06T09:13:45.942Z,2.05
2023-03-06T09:16:12.861Z,0.50
2023-03-06T09:18:39.782Z,0.57
2023-03-06T09:21:09.219Z,0.60
2023-03-06T09:23:37.196Z,0.80
2023-03-06T09:26:03.981Z,2.17
2023-03-06T09:28:30.703Z,1.13
2023-03-06T09:30:57.794Z,2.03
2023-03-06T09:33:24.510Z,0.50
2023-03-06T09:35:54.379Z,1.48
2023-03-06T09:38:23.432Z,2.90
2023-03-06T09:41:02.141Z,0.20
2023-03-06T09:43:44.577Z,2.22
2023-03-06T09:46:24.550Z,0.38
2023-03-06T09:49:23.156Z,0.77
2023-03-06T09:51:52.562Z,1.73
2023-03-06T09:54:22.744Z,1.83
2023-03-06T09:56:50.792Z,0.40
2023-03-06T09:59:23.271Z,1.45
2023-03-06T10:02:02.804Z,0.30
2023-03-06T10:04:42.314Z,1.90
2023-03-06T10:07:48.141Z,0.75
2023-03-06T10:10:26.718Z,0.70
2023-03-06T10:13:11.624Z,2.30
2023-03-06T10:15:43.995Z,3.78
2023-03-06T10:18:12.260Z,1.08
2023-03-06T10:21:19.305Z,4.85
2023-03-06T10:23:54.586Z,2.78
2023-03-06T10:26:36.276Z,1.65
2023-03-06T10:29:29.658Z,5.75
2023-03-06T10:32:10.707Z,3.25
2023-03-06T10:34:39.914Z,3.77
2023-03-06T10:37:18.932Z,0.47
2023-03-06T10:39:46.286Z,0.55
2023-03-06T10:42:13.280Z,0.82
2023-03-06T10:44:39.930Z,1.58
2023-03-06T10:47:42.260Z,1.15
2023-03-06T10:53:05.452Z,1.60
2023-03-06T10:55:37.636Z,0.30
2023-03-06T10:58:36.428Z,1.85
2023-03-06T11:01:21.891Z,1.75
2023-03-06T11:03:48.801Z,2.95
2023-03-06T11:06:31.773Z,1.33
2023-03-06T11:09:16.409Z,1.02
2023-03-06T11:11:43.065Z,0.60
2023-03-06T11:14:18.005Z,2.60
2023-03-06T11:16:53.019Z,3.20
2023-03-06T11:19:26.459Z,0.98
2023-03-06T11:22:17.993Z,1.63
2023-03-06T11:24:51.308Z,1.33
2023-03-06T11:27:34.776Z,1.58
2023-03-06T11:30:24.271Z,3.63
2023-03-06T11:32:57.538Z,3.83
2023-03-06T11:35:28.369Z,2.42
2023-03-06T11:38:04.281Z,4.90
2023-03-06T11:40:43.123Z,1.20
2023-03-06T11:43:48.644Z,0.75
2023-03-06T11:46:40.083Z,1.90
2023-03-06T11:49:16.821Z,1.67
2023-03-06T11:51:59.229Z,4.10
2023-03-06T11:54:26.315Z,4.82
2023-03-06T11:57:04.756Z,2.75
2023-03-06T12:00:06.997Z,2.47
2023-03-06T12:02:59.757Z,14.60
2023-03-06T12:05:34.954Z,18.85
2023-03-06T12:08:19.823Z,9.35
2023-03-06T12:10:54.383Z,7.28
2023-03-06T12:14:00.972Z,4.47
2023-03-06T12:16:35.717Z,4.78
2023-03-06T12:19:16.325Z,2.65
2023-03-06T12:22:04.058Z,2.50
2023-03-06T12:25:00.464Z,1.23
2023-03-06T12:28:07.005Z,5.10
2023-03-06T12:31:02.443Z,4.88
2023-03-06T12:33:47.153Z,3.50
2023-03-06T12:36:21.554Z,2.65
2023-03-06T12:38:51.578Z,3.30
2023-03-06T12:41:43.232Z,4.45
2023-03-06T12:44:20.233Z,5.25
2023-03-06T12:46:57.599Z,5.05
2023-03-06T12:49:33.340Z,4.53
2023-03-06T12:52:02.100Z,7.40
2023-03-06T12:54:31.298Z,8.23
2023-03-06T12:57:00.416Z,7.93
2023-03-06T12:59:37.018Z,7.65
2023-03-06T13:02:27.638Z,7.00
2023-03-06T13:05:29.728Z,8.27
2023-03-06T13:08:31.627Z,8.20
2023-03-06T13:11:27.632Z,5.80
2023-03-06T13:13:54.897Z,6.95
2023-03-06T13:16:30.568Z,6.05
2023-03-06T13:19:20.008Z,8.20
2023-03-06T13:21:55.417Z,5.55
2023-03-06T13:24:29.087Z,7.57
2023-03-06T13:26:58.609Z,6.80
2023-03-06T13:29:37.326Z,11.10
2023-03-06T13:32:03.949Z,6.97
2023-03-06T13:34:38.827Z,7.35
2023-03-06T13:37:17.090Z,10.10
2023-03-06T13:39:55.606Z,6.28
2023-03-06T13:43:03.618Z,7.90
2023-03-06T13:45:37.680Z,8.98
2023-03-06T13:48:30.240Z,9.43
2023-03-06T13:50:53.550Z,10.20
2023-03-06T13:53:40.548Z,9.52
2023-03-06T13:56:38.005Z,9.10
2023-03-06T13:59:46.304Z,12.93
2023-03-06T14:02:39.579Z,8.77
2023-03-06T14:05:15.113Z,12.65
2023-03-06T14:08:01.783Z,11.82
2023-03-06T14:10:31.299Z,9.23
2023-03-06T14:13:05.912Z,7.45
2023-03-06T14:15:40.434Z,7.18
2023-03-06T14:18:19.075Z,6.55
2023-03-06T14:21:00.260Z,7.32
2023-03-06T14:23:26.858Z,6.97
2023-03-06T14:26:02.590Z,7.88
2023-03-06T14:28:31.059Z,6.82
2023-03-06T14:30:59.791Z,8.45
2023-03-06T14:33:48.572Z,6.85
2023-03-06T14:36:19.804Z,5.82
2023-03-06T14:38:53.525Z,4.35
2023-03-06T14:41:29.609Z,6.43
2023-03-06T14:44:17.570Z,7.95
2023-03-06T14:46:46.286Z,5.28
2023-03-06T14:49:15.198Z,4.78
2023-03-06T14:51:45.805Z,8.35
2023-03-06T14:54:34.217Z,8.07
2023-03-06T14:57:05.934Z,7.35
2023-03-06T14:59:55.999Z,6.00
2023-03-06T15:02:25.970Z,6.30
2023-03-06T15:04:57.253Z,5.60
2023-03-06T15:07:28.971Z,4.97
2023-03-06T15:09:55.864Z,6.82
2023-03-06T15:12:31.174Z,6.25
2023-03-06T15:15:10.440Z,7.88
2023-03-06T15:17:46.002Z,8.43
2023-03-06T15:20:41.215Z,7.22
2023-03-06T15:23:26.208Z,9.13
2023-03-06T15:26:00.860Z,7.93
2023-03-06T15:28:32.613Z,6.43
2023-03-06T15:31:16.976Z,7.57
2023-03-06T15:33:44.031Z,7.82
2023-03-06T15:36:27.596Z,9.90
2023-03-06T15:38:56.334Z,8.38
2023-03-06T15:41:36.293Z,6.32
2023-03-06T15:44:10.928Z,6.88
2023-03-06T15:46:37.684Z,8.77
2023-03-06T15:49:04.637Z,12.30
2023-03-06T15:51:31.977Z,8.23
2023-03-06T15:54:11.383Z,9.70
2023-03-06T15:56:41.705Z,9.15
2023-03-06T15:59:33.050Z,10.40
2023-03-06T16:02:10.652Z,9.40
2023-03-06T16:04:37.302Z,10.45
2023-03-06T16:07:04.191Z,15.82
2023-03-06T16:09:30.866Z,11.45
2023-03-06T16:11:57.498Z,10.65
2023-03-06T16:14:24.259Z,11.93
2023-03-06T16:16:52.620Z,11.43
2023-03-06T16:19:29.252Z,11.65
2023-03-06T16:21:56.971Z,10.10
2023-03-06T16:24:24.741Z,11.77
2023-03-06T16:26:53.328Z,15.70
2023-03-06T16:29:25.357Z,15.15
2023-03-06T16:31:52.549Z,14.48
2023-03-06T16:34:19.708Z,16.92
2023-03-06T16:36:48.179Z,15.95
2023-03-06T16:39:20.576Z,17.00
2023-03-06T16:41:49.199Z,14.68
2023-03-06T16:44:15.922Z,17.02
2023-03-06T16:46:47.460Z,18.65
2023-03-06T16:49:19.631Z,20.85
2023-03-06T16:51:46.649Z,19.20
2023-03-06T16:54:13.974Z,19.15
2023-03-06T16:56:41.049Z,19.10
2023-03-06T16:59:08.341Z,19.58
2023-03-06T17:01:35.264Z,19.58
2023-03-06T17:04:02.092Z,18.88
2023-03-06T17:06:29.046Z,16.92
2023-03-06T17:08:57.795Z,16.58
2023-03-06T17:11:24.909Z,16.50
2023-03-06T17:13:51.671Z,19.85
2023-03-06T17:16:18.442Z,18.23
2023-03-06T17:18:46.305Z,21.30
2023-03-06T17:21:15.647Z,16.10
2023-03-06T17:23:43.058Z,17.73
2023-03-06T17:26:18.664Z,18.63
2023-03-06T17:28:46.081Z,16.13
2023-03-06T17:31:22.041Z,17.52
2023-03-06T17:33:49.337Z,20.08
2023-03-06T17:36:16.878Z,14.52
2023-03-06T17:38:43.949Z,13.50
2023-03-06T17:41:11.911Z,16.27
2023-03-06T17:43:39.125Z,16.25
2023-03-06T17:46:08.013Z,18.30
2023-03-06T17:48:35.413Z,15.95
2023-03-06T17:51:02.210Z,17.73
2023-03-06T17:53:29.017Z,19.98
2023-03-06T17:55:57.885Z,20.73
2023-03-06T17:58:25.274Z,15.68
2023-03-06T18:00:52.013Z,18.48
2023-03-06T18:03:18.962Z,18.90
2023-03-06T18:05:45.663Z,18.17
2023-03-06T18:08:12.288Z,18.88
2023-03-06T18:10:40.511Z,19.95
2023-03-06T18:13:08.368Z,21.85
2023-03-06T18:15:39.507Z,20.80
2023-03-06T18:18:06.733Z,24.63
2023-03-06T18:20:33.463Z,16.52
2023-03-06T18:23:03.444Z,20.73
2023-03-06T18:25:32.036Z,23.30
2023-03-06T18:27:58.953Z,31.27
2023-03-06T18:30:26.327Z,22.70
2023-03-06T18:32:53.587Z,21.40
2023-03-06T18:35:20.600Z,23.63
2023-03-06T18:37:47.209Z,29.20
2023-03-06T18:40:14.316Z,29.50
2023-03-06T18:42:41.029Z,25.27
2023-03-06T18:45:08.178Z,24.13
2023-03-06T18:47:34.909Z,22.98
2023-03-06T18:50:02.952Z,26.80
2023-03-06T18:52:29.626Z,25.25
2023-03-06T18:54:56.292Z,23.63
2023-03-06T18:57:23.030Z,23.75
2023-03-06T18:59:50.004Z,25.05
2023-03-06T19:02:17.001Z,25.10
2023-03-06T19:04:43.685Z,25.90
2023-03-06T19:07:12.393Z,23.67
2023-03-06T19:09:39.047Z,27.98
2023-03-06T19:12:06.166Z,24.83
2023-03-06T19:14:32.855Z,24.80
2023-03-06T19:16:59.446Z,27.85
2023-03-06T19:19:26.335Z,30.63
2023-03-06T19:21:53.706Z,26.80
2023-03-06T19:24:20.317Z,33.78
2023-03-06T19:26:46.954Z,31.70
2023-03-06T19:29:13.563Z,31.10
2023-03-06T19:31:40.345Z,29.55
2023-03-06T19:34:07.073Z,29.58
2023-03-06T19:36:34.569Z,29.15
2023-03-06T19:39:03.885Z,30.50
2023-03-06T19:41:30.534Z,32.47
2023-03-06T19:43:59.522Z,31.63
2023-03-06T19:46:26.678Z,31.83
2023-03-06T19:49:01.940Z,28.65
2023-03-06T19:51:29.006Z,31.48
2023-03-06T19:53:56.929Z,30.65
2023-03-06T19:56:27.040Z,31.73
2023-03-06T19:58:53.845Z,31.85
2023-03-06T20:01:22.215Z,31.48
2023-03-06T20:03:50.592Z,29.52
2023-03-06T20:06:19.330Z,33.70
2023-03-06T20:08:47.451Z,31.13
2023-03-06T20:11:26.429Z,34.03
2023-03-06T20:13:53.706Z,32.50
2023-03-06T20:16:20.388Z,37.72
2023-03-06T20:18:47.078Z,35.38
2023-03-06T20:21:14.671Z,32.47
2023-03-06T20:23:41.805Z,31.08
2023-03-06T20:26:12.096Z,36.47
2023-03-06T20:28:40.575Z,35.17
2023-03-06T20:31:18.789Z,29.77
2023-03-06T20:33:48.992Z,30.35
2023-03-06T20:36:30.836Z,28.55
2023-03-06T20:39:00.588Z,25.77
2023-03-06T20:41:29.072Z,31.55
2023-03-06T20:43:55.833Z,28.23
2023-03-06T20:46:23.222Z,27.77
2023-03-06T20:48:51.980Z,29.75
2023-03-06T20:51:21.526Z,25.90
2023-03-06T20:53:49.789Z,28.75
2023-03-06T20:56:19.103Z,25.40
2023-03-06T20:58:45.766Z,25.23
2023-03-06T21:01:22.872Z,26.23
2023-03-06T21:03:49.692Z,26.27
2023-03-06T21:06:17.288Z,26.73
2023-03-06T21:08:44.054Z,25.38
2023-03-06T21:11:10.715Z,27.98
2023-03-06T21:13:37.550Z,27.50
2023-03-06T21:16:06.871Z,26.75
2023-03-06T21:18:33.834Z,23.05
2023-03-06T21:21:05.356Z,18.30
2023-03-06T21:23:32.106Z,24.58
2023-03-06T21:25:59.021Z,27.08
2023-03-06T21:28:25.716Z,30.60
2023-03-06T21:30:52.543Z,26.83
2023-03-06T21:33:19.327Z,26.75
2023-03-06T21:35:46.642Z,21.13
2023-03-06T21:38:13.934Z,29.75
2023-03-06T21:40:40.611Z,28.60
2023-03-06T21:43:07.287Z,31.73
2023-03-06T21:45:33.941Z,25.88
2023-03-06T21:48:01.001Z,20.55
2023-03-06T21:50:28.280Z,20.88
2023-03-06T21:52:56.479Z,21.65
2023-03-06T21:55:23.276Z,16.63
2023-03-06T21:57:54.120Z,13.55
2023-03-06T22:00:23.616Z,12.88
2023-03-06T22:02:50.524Z,14.45
2023-03-06T22:05:17.208Z,12.70
2023-03-06T22:07:44.150Z,12.13
2023-03-06T22:10:12.187Z,12.38
2023-03-06T22:12:39.971Z,9.52
2023-03-06T22:15:07.671Z,11.70
2023-03-06T22:17:34.325Z,10.52
2023-03-06T22:20:01.123Z,9.15
2023-03-06T22:22:27.753Z,11.02
2023-03-06T22:24:54.409Z,11.02
2023-03-06T22:27:21.761Z,9.23
2023-03-06T22:29:48.390Z,9.85
2023-03-06T22:32:15.462Z,9.48
2023-03-06T22:34:42.125Z,10.45
2023-03-06T22:37:08.759Z,7.20
2023-03-06T22:39:35.382Z,7.03
2023-03-06T22:42:02.111Z,7.72
2023-03-06T22:44:28.731Z,7.97
2023-03-06T22:46:55.400Z,8.57
2023-03-06T22:49:22.296Z,6.75
2023-03-06T22:51:48.906Z,6.35
2023-03-06T22:54:15.692Z,9.48
2023-03-06T22:56:42.338Z,6.78
2023-03-06T22:59:08.984Z,9.07
2023-03-06T23:01:35.870Z,12.13
2023-03-06T23:04:04.280Z,13.48
2023-03-06T23:06:39.854Z,7.82
2023-03-06T23:09:15.883Z,7.90
2023-03-06T23:11:42.713Z,5.18
2023-03-06T23:14:12.095Z,8.07
2023-03-06T23:16:39.520Z,5.75
2023-03-06T23:19:06.829Z,6.20
2023-03-06T23:21:34.537Z,10.75
2023-03-06T23:24:01.690Z,7.30
2023-03-06T23:26:30.255Z,8.27
2023-03-06T23:28:57.700Z,11.55
2023-03-06T23:31:28.793Z,7.45
2023-03-06T23:34:00.873Z,8.67
2023-03-06T23:36:28.692Z,10.40
2023-03-06T23:38:55.757Z,10.85
2023-03-06T23:41:23.618Z,17.02
2023-03-06T23:43:50.671Z,11.85
2023-03-06T23:46:17.825Z,12.07
2023-03-06T23:48:44.582Z,12.70
2023-03-06T23:51:22.007Z,10.40
2023-03-06T23:53:54.917Z,14.30
2023-03-06T23:56:21.737Z,12.75
2023-03-06T23:58:48.389Z,13.50
